createdAt,value
2018-12-20T00:00:46.640Z,95458.22
2018-12-20T00:01:49.191Z,95455.83
2018-12-20T00:04:00.579Z,95452.48
2018-12-20T00:05:03.251Z,95455.89
2018-12-20T00:06:05.844Z,95454.78
2018-12-20T00:07:08.606Z,95453.07
2018-12-20T00:08:11.146Z,95452.58
2018-12-20T00:09:13.597Z,95450.84
2018-12-20T00:10:16.250Z,95449.59
2018-12-20T00:11:18.913Z,95446.25
2018-12-20T00:12:21.394Z,95445.98
2018-12-20T00:13:23.842Z,95446.89
2018-12-20T00:14:29.849Z,95448.19
2018-12-20T00:15:30.794Z,95449.55
2018-12-20T00:16:33.325Z,95449.90
2018-12-20T00:17:41.664Z,95452.60
2018-12-20T00:18:44.149Z,95453.36
2018-12-20T00:19:46.628Z,95458.94
2018-12-20T00:20:49.201Z,95454.81
2018-12-20T00:21:51.635Z,95456.83
2018-12-20T00:22:54.146Z,95454.72
2018-12-20T00:23:56.665Z,95457.66
2018-12-20T00:24:59.391Z,95455.18
2018-12-20T00:26:01.935Z,95454.78
2018-12-20T00:27:04.491Z,95456.84
2018-12-20T00:28:07.144Z,95454.59
2018-12-20T00:29:09.719Z,95452.39
2018-12-20T00:30:12.436Z,95454.45
2018-12-20T00:31:14.978Z,95452.79
2018-12-20T00:32:17.428Z,95459.09
2018-12-20T00:33:19.969Z,95459.67
2018-12-20T00:34:22.657Z,95460.22
2018-12-20T00:35:25.226Z,95458.02
2018-12-20T00:36:27.931Z,95456.34
2018-12-20T00:37:30.459Z,95456.92
2018-12-20T00:38:33.257Z,95455.94
2018-12-20T00:39:35.822Z,95456.48
2018-12-20T00:40:38.448Z,95460.98
2018-12-20T00:41:41.100Z,95457.39
2018-12-20T00:42:43.779Z,95468.23
2018-12-20T00:43:46.450Z,95467.83
2018-12-20T00:44:48.929Z,95464.67
2018-12-20T00:45:51.575Z,95474.35
2018-12-20T00:46:54.162Z,95469.12
2018-12-20T00:47:56.650Z,95472.91
2018-12-20T00:48:59.227Z,95475.52
2018-12-20T00:50:01.884Z,95478.53
2018-12-20T00:51:04.485Z,95480.55
2018-12-20T00:52:07.046Z,95479.65
2018-12-20T00:53:09.628Z,95484.32
2018-12-20T00:54:12.145Z,95480.87
2018-12-20T00:55:14.584Z,95480.97
2018-12-20T00:56:17.185Z,95481.31
2018-12-20T00:57:19.913Z,95484.06
2018-12-20T00:58:22.655Z,95477.33
2018-12-20T00:59:25.190Z,95477.33
2018-12-20T01:00:27.780Z,95474.09
2018-12-20T01:01:30.360Z,95479.45
2018-12-20T01:02:32.834Z,95485.02
2018-12-20T01:03:35.387Z,95483.09
2018-12-20T01:04:37.987Z,95481.43
2018-12-20T01:05:40.742Z,95487.49
2018-12-20T01:06:43.293Z,95485.61
2018-12-20T01:07:45.768Z,95487.77
2018-12-20T01:08:48.317Z,95486.59
2018-12-20T01:09:50.856Z,95485.38
2018-12-20T01:10:53.414Z,95496.43
2018-12-20T01:11:55.908Z,95492.21
2018-12-20T01:12:58.438Z,95495.80
2018-12-20T01:14:01.011Z,95493.38
2018-12-20T01:15:04.610Z,95499.14
2018-12-20T01:16:07.091Z,95495.13
2018-12-20T01:17:09.631Z,95495.59
2018-12-20T01:18:12.305Z,95498.88
2018-12-20T01:19:14.976Z,95500.53
2018-12-20T01:20:17.621Z,95499.77
2018-12-20T01:21:20.270Z,95501.27
2018-12-20T01:22:22.970Z,95503.61
2018-12-20T01:23:25.690Z,95503.69
2018-12-20T01:24:28.149Z,95500.89
2018-12-20T01:25:30.758Z,95510.62
2018-12-20T01:26:33.251Z,95509.94
2018-12-20T01:27:35.921Z,95507.55
2018-12-20T01:28:38.489Z,95513.52
2018-12-20T01:29:41.085Z,95510.69
2018-12-20T01:30:43.600Z,95512.63
2018-12-20T01:31:46.215Z,95507.88
2018-12-20T01:32:48.956Z,95513.58
2018-12-20T01:33:51.627Z,95512.95
2018-12-20T01:34:54.202Z,95508.50
2018-12-20T01:35:56.951Z,95509.45
2018-12-20T01:36:59.487Z,95511.86
2018-12-20T01:38:01.948Z,95511.86
2018-12-20T01:39:06.005Z,95509.45
2018-12-20T01:40:08.619Z,95511.64
2018-12-20T01:41:11.055Z,95509.13
2018-12-20T01:42:13.507Z,95506.08
2018-12-20T01:43:16.172Z,95509.39
2018-12-20T01:44:18.832Z,95512.00
2018-12-20T01:45:21.386Z,95505.89
2018-12-20T01:46:24.006Z,95504.59
2018-12-20T01:47:26.515Z,95507.19
2018-12-20T01:48:29.093Z,95509.50
2018-12-20T01:49:31.840Z,95508.85
2018-12-20T01:50:34.493Z,95510.42
2018-12-20T01:51:37.048Z,95510.78
2018-12-20T01:52:39.601Z,95506.11
2018-12-20T01:53:42.202Z,95510.48
2018-12-20T01:54:45.599Z,95508.62
2018-12-20T01:55:48.237Z,95507.41
2018-12-20T01:56:50.842Z,95511.67
2018-12-20T01:57:53.291Z,95504.86
2018-12-20T01:58:55.795Z,95512.36
2018-12-20T01:59:58.448Z,95507.77
2018-12-20T02:01:01.021Z,95510.42
2018-12-20T02:02:03.522Z,95509.06
2018-12-20T02:03:06.296Z,95505.34
2018-12-20T02:04:08.938Z,95511.52
2018-12-20T02:05:11.598Z,95505.39
2018-12-20T02:06:14.161Z,95503.55
2018-12-20T02:07:16.919Z,95508.44
2018-12-20T02:08:19.387Z,95509.75
2018-12-20T02:09:21.880Z,95506.78
2018-12-20T02:10:24.432Z,95503.91
2018-12-20T02:11:26.997Z,95505.97
2018-12-20T02:12:29.457Z,95505.75
2018-12-20T02:13:31.972Z,95507.27
2018-12-20T02:14:34.540Z,95504.04
2018-12-20T02:15:37.170Z,95514.28
2018-12-20T02:16:39.732Z,95515.02
2018-12-20T02:17:42.314Z,95504.80
2018-12-20T02:18:44.954Z,95506.46
2018-12-20T02:19:47.573Z,95508.44
2018-12-20T02:20:50.110Z,95504.23
2018-12-20T02:21:52.741Z,95500.40
2018-12-20T02:22:55.359Z,95504.37
2018-12-20T02:23:57.826Z,95501.57
2018-12-20T02:25:00.441Z,95497.66
2018-12-20T02:26:02.918Z,95505.31
2018-12-20T02:27:05.354Z,95501.48
2018-12-20T02:28:07.783Z,95506.02
2018-12-20T02:29:10.247Z,95506.65
2018-12-20T02:30:12.862Z,95506.02
2018-12-20T02:31:15.943Z,95501.56
2018-12-20T02:32:18.514Z,95502.11
2018-12-20T02:33:21.351Z,95507.77
2018-12-20T02:34:24.142Z,95507.14
2018-12-20T02:35:26.704Z,95504.58
2018-12-20T02:36:29.240Z,95507.87
2018-12-20T02:37:31.742Z,95506.42
2018-12-20T02:38:34.177Z,95511.64
2018-12-20T02:39:36.629Z,95507.14
2018-12-20T02:40:39.103Z,95508.49
2018-12-20T02:41:41.639Z,95507.73
2018-12-20T02:42:44.346Z,95508.36
2018-12-20T02:43:47.004Z,95513.03
2018-12-20T02:44:49.571Z,95507.33
2018-12-20T02:45:52.201Z,95504.44
2018-12-20T02:46:54.747Z,95506.07
2018-12-20T02:47:57.606Z,95516.45
2018-12-20T02:49:00.187Z,95509.03
2018-12-20T02:50:02.820Z,95513.22
2018-12-20T02:51:05.285Z,95509.98
2018-12-20T02:52:07.754Z,95513.49
2018-12-20T02:53:10.242Z,95518.80
2018-12-20T02:54:12.919Z,95510.20
2018-12-20T02:55:15.533Z,95514.79
2018-12-20T02:56:18.245Z,95517.13
2018-12-20T02:57:20.801Z,95515.55
2018-12-20T02:58:23.296Z,95511.96
2018-12-20T02:59:25.742Z,95464.91
2018-12-20T03:00:28.660Z,95514.52
2018-12-20T03:01:31.293Z,95517.34
2018-12-20T03:02:33.744Z,95513.84
2018-12-20T03:03:36.400Z,95520.28
2018-12-20T03:04:38.950Z,95519.50
2018-12-20T03:05:41.580Z,95525.05
2018-12-20T03:06:44.071Z,95517.00
2018-12-20T03:07:46.534Z,95517.81
2018-12-20T03:08:48.982Z,95525.31
2018-12-20T03:09:51.464Z,95522.08
2018-12-20T03:10:54.008Z,95526.76
2018-12-20T03:11:56.598Z,95522.48
2018-12-20T03:12:59.291Z,95526.67
2018-12-20T03:14:02.051Z,95526.39
2018-12-20T03:15:05.330Z,95524.59
2018-12-20T03:16:07.768Z,95518.70
2018-12-20T03:17:10.226Z,95516.86
2018-12-20T03:18:12.797Z,95528.56
2018-12-20T03:19:15.354Z,95524.38
2018-12-20T03:20:17.855Z,95518.08
2018-12-20T03:21:20.335Z,95519.47
2018-12-20T03:22:22.784Z,95522.48
2018-12-20T03:23:25.272Z,95522.13
2018-12-20T03:24:27.789Z,95519.23
2018-12-20T03:25:30.224Z,95520.91
2018-12-20T03:26:32.662Z,95519.78
2018-12-20T03:27:35.125Z,95517.80
2018-12-20T03:28:37.823Z,95521.71
2018-12-20T03:29:40.383Z,95520.73
2018-12-20T03:30:42.907Z,95517.30
2018-12-20T03:31:45.346Z,95525.54
2018-12-20T03:32:47.811Z,95521.00
2018-12-20T03:33:50.773Z,95520.41
2018-12-20T03:34:53.636Z,95523.92
2018-12-20T03:35:56.212Z,95525.22
2018-12-20T03:36:58.656Z,95527.26
2018-12-20T03:38:01.242Z,95528.52
2018-12-20T03:39:06.263Z,95520.91
2018-12-20T03:40:08.791Z,95517.17
2018-12-20T03:41:11.296Z,95520.73
2018-12-20T03:42:14.072Z,95515.92
2018-12-20T03:43:16.616Z,95519.83
2018-12-20T03:44:19.069Z,95522.34
2018-12-20T03:45:28.698Z,95521.53
2018-12-20T03:46:25.955Z,95523.24
2018-12-20T03:47:28.671Z,95526.39
2018-12-20T03:48:31.280Z,95520.14
2018-12-20T03:49:33.750Z,95518.70
2018-12-20T03:50:36.256Z,95523.16
2018-12-20T03:51:38.837Z,95522.94
2018-12-20T03:52:41.465Z,95520.69
2018-12-20T03:53:44.063Z,95524.42
2018-12-20T03:54:46.705Z,95523.20
2018-12-20T03:55:49.474Z,95530.62
2018-12-20T03:56:52.013Z,95525.67
2018-12-20T03:57:54.494Z,95524.33
2018-12-20T03:58:57.038Z,95525.63
2018-12-20T03:59:59.496Z,95526.86
2018-12-20T04:01:02.031Z,95529.47
2018-12-20T04:02:04.530Z,95532.70
2018-12-20T04:03:07.142Z,95529.05
2018-12-20T04:04:09.891Z,95526.08
2018-12-20T04:05:12.374Z,95532.88
2018-12-20T04:06:14.962Z,95535.48
2018-12-20T04:07:17.686Z,95532.25
2018-12-20T04:08:20.231Z,95528.41
2018-12-20T04:09:22.986Z,95533.69
2018-12-20T04:10:25.735Z,95527.11
2018-12-20T04:11:28.442Z,95529.98
2018-12-20T04:12:30.943Z,95529.22
2018-12-20T04:13:33.469Z,95533.99
2018-12-20T04:14:36.277Z,95531.16
2018-12-20T04:15:39.253Z,95530.22
2018-12-20T04:16:41.789Z,95534.31
2018-12-20T04:17:44.233Z,95538.05
2018-12-20T04:18:46.811Z,95538.78
2018-12-20T04:19:49.287Z,95545.24
2018-12-20T04:20:51.749Z,95534.16
2018-12-20T04:21:54.576Z,95537.11
2018-12-20T04:22:57.187Z,95540.88
2018-12-20T04:23:59.768Z,95538.48
2018-12-20T04:25:02.407Z,95536.47
2018-12-20T04:26:04.858Z,95532.98
2018-12-20T04:27:07.307Z,95539.72
2018-12-20T04:28:09.784Z,95536.78
2018-12-20T04:29:12.302Z,95540.42
2018-12-20T04:30:14.794Z,95538.00
2018-12-20T04:31:17.459Z,95540.34
2018-12-20T04:32:20.078Z,95540.21
2018-12-20T04:33:22.985Z,95536.61
2018-12-20T04:34:25.759Z,95542.55
2018-12-20T04:35:28.470Z,95546.55
2018-12-20T04:36:31.051Z,95538.00
2018-12-20T04:37:33.622Z,95537.27
2018-12-20T04:38:36.291Z,95542.28
2018-12-20T04:39:38.888Z,95540.62
2018-12-20T04:40:41.462Z,95542.90
2018-12-20T04:41:43.991Z,95544.03
2018-12-20T04:42:46.618Z,95545.20
2018-12-20T04:43:49.268Z,95545.78
2018-12-20T04:44:51.796Z,95543.76
2018-12-20T04:45:54.445Z,95546.91
2018-12-20T04:46:57.343Z,95546.86
2018-12-20T04:48:01.257Z,95544.88
2018-12-20T04:49:04.013Z,95554.08
2018-12-20T04:50:06.542Z,95549.61
2018-12-20T04:51:09.026Z,95550.56
2018-12-20T04:52:11.727Z,95544.39
2018-12-20T04:53:14.226Z,95555.12
2018-12-20T04:54:16.858Z,95549.22
2018-12-20T04:55:19.530Z,95552.81
2018-12-20T04:56:22.285Z,95555.16
2018-12-20T04:57:24.787Z,95551.92
2018-12-20T04:58:27.229Z,95551.38
2018-12-20T04:59:29.677Z,95554.61
2018-12-20T05:00:32.191Z,95549.31
2018-12-20T05:01:34.807Z,95551.78
2018-12-20T05:02:37.363Z,95553.14
2018-12-20T05:03:40.243Z,95551.96
2018-12-20T05:04:42.819Z,95553.67
2018-12-20T05:05:45.388Z,95554.08
2018-12-20T05:06:47.946Z,95553.53
2018-12-20T05:07:50.470Z,95552.84
2018-12-20T05:08:53.102Z,95554.02
2018-12-20T05:09:55.788Z,95556.41
2018-12-20T05:10:58.519Z,95563.20
2018-12-20T05:12:00.978Z,95554.75
2018-12-20T05:13:03.430Z,95560.55
2018-12-20T05:14:05.975Z,95561.09
2018-12-20T05:15:08.661Z,95562.58
2018-12-20T05:16:11.252Z,95560.80
2018-12-20T05:17:14.042Z,95566.98
2018-12-20T05:18:16.526Z,95567.88
2018-12-20T05:19:19.114Z,95565.67
2018-12-20T05:20:21.732Z,95563.69
2018-12-20T05:21:24.608Z,95569.64
2018-12-20T05:22:27.277Z,95566.77
2018-12-20T05:23:29.943Z,95570.54
2018-12-20T05:24:32.862Z,95567.93
2018-12-20T05:25:35.791Z,95566.17
2018-12-20T05:26:38.610Z,95569.55
2018-12-20T05:27:41.437Z,95565.27
2018-12-20T05:28:44.141Z,95572.20
2018-12-20T05:29:46.749Z,95574.59
2018-12-20T05:30:49.236Z,95571.84
2018-12-20T05:31:51.787Z,95572.34
2018-12-20T05:32:54.342Z,95578.11
2018-12-20T05:33:56.847Z,95575.91
2018-12-20T05:34:59.635Z,95572.20
2018-12-20T05:36:02.370Z,95578.88
2018-12-20T05:37:05.095Z,95579.14
2018-12-20T05:38:07.754Z,95586.29
2018-12-20T05:39:10.298Z,95588.00
2018-12-20T05:40:13.003Z,95582.42
2018-12-20T05:41:15.641Z,95581.25
2018-12-20T05:42:18.325Z,95581.25
2018-12-20T05:43:20.934Z,95579.76
2018-12-20T05:44:23.583Z,95573.28
2018-12-20T05:45:26.151Z,95584.75
2018-12-20T05:46:28.633Z,95584.39
2018-12-20T05:47:31.116Z,95584.03
2018-12-20T05:48:33.605Z,95583.35
2018-12-20T05:49:36.126Z,95578.77
2018-12-20T05:50:38.620Z,95583.84
2018-12-20T05:51:41.353Z,95583.13
2018-12-20T05:52:43.900Z,95590.38
2018-12-20T05:53:51.653Z,95588.09
2018-12-20T05:54:54.276Z,95596.55
2018-12-20T05:55:57.131Z,95595.93
2018-12-20T05:56:59.685Z,95597.33
2018-12-20T05:58:02.200Z,95596.92
2018-12-20T05:59:04.755Z,95593.95
2018-12-20T06:00:09.399Z,95598.63
2018-12-20T06:01:11.936Z,95597.83
2018-12-20T06:02:14.474Z,95595.21
2018-12-20T06:03:17.070Z,95595.84
2018-12-20T06:04:19.646Z,95593.01
2018-12-20T06:05:22.132Z,95599.94
2018-12-20T06:06:24.690Z,95600.84
2018-12-20T06:07:27.195Z,95602.15
2018-12-20T06:08:29.685Z,95604.22
2018-12-20T06:09:32.301Z,95611.11
2018-12-20T06:10:34.922Z,95604.58
2018-12-20T06:11:37.364Z,95602.70
2018-12-20T06:12:39.800Z,95612.00
2018-12-20T06:13:42.411Z,95610.89
2018-12-20T06:14:44.957Z,95609.58
2018-12-20T06:15:47.711Z,95607.91
2018-12-20T06:16:50.362Z,95610.13
2018-12-20T06:17:53.220Z,95614.80
2018-12-20T06:18:55.976Z,95616.25
2018-12-20T06:19:58.559Z,95622.64
2018-12-20T06:21:01.242Z,95618.86
2018-12-20T06:22:04.058Z,95617.02
2018-12-20T06:23:06.812Z,95628.77
2018-12-20T06:24:09.371Z,95626.56
2018-12-20T06:25:11.827Z,95621.78
2018-12-20T06:26:14.324Z,95626.16
2018-12-20T06:27:16.754Z,95621.34
2018-12-20T06:28:19.187Z,95623.91
2018-12-20T06:29:21.630Z,95622.95
2018-12-20T06:30:24.110Z,95629.48
2018-12-20T06:31:26.567Z,95624.98
2018-12-20T06:32:29.004Z,95629.07
2018-12-20T06:33:31.467Z,95627.77
2018-12-20T06:34:33.903Z,95622.27
2018-12-20T06:35:36.364Z,95625.48
2018-12-20T06:36:38.812Z,95625.07
2018-12-20T06:37:41.276Z,95618.35
2018-12-20T06:38:43.711Z,95623.58
2018-12-20T06:39:46.176Z,95624.88
2018-12-20T06:40:48.642Z,95630.30
2018-12-20T06:41:51.096Z,95630.52
2018-12-20T06:42:53.553Z,95626.92
2018-12-20T06:43:55.988Z,95625.56
2018-12-20T06:44:58.451Z,95631.55
2018-12-20T06:46:00.911Z,95637.12
2018-12-20T06:47:03.367Z,95635.54
2018-12-20T06:48:05.795Z,95633.83
2018-12-20T06:49:08.244Z,95635.87
2018-12-20T06:50:10.679Z,95638.16
2018-12-20T06:51:13.151Z,95635.19
2018-12-20T06:52:15.608Z,95639.11
2018-12-20T06:53:18.038Z,95642.13
2018-12-20T06:54:20.484Z,95644.11
2018-12-20T06:55:23.042Z,95642.61
2018-12-20T06:56:25.500Z,95639.23
2018-12-20T06:57:29.544Z,95650.45
2018-12-20T06:58:32.241Z,95640.19
2018-12-20T06:59:34.693Z,95645.70
2018-12-20T07:00:37.210Z,95644.41
2018-12-20T07:01:39.714Z,95642.20
2018-12-20T07:02:42.245Z,95641.17
2018-12-20T07:03:44.710Z,95640.81
2018-12-20T07:04:47.153Z,95636.68
2018-12-20T07:05:49.592Z,95641.45
2018-12-20T07:06:52.050Z,95638.62
2018-12-20T07:07:54.520Z,95639.02
2018-12-20T07:08:56.957Z,95643.70
2018-12-20T07:09:59.395Z,95646.86
2018-12-20T07:11:01.842Z,95645.42
2018-12-20T07:12:04.306Z,95647.48
2018-12-20T07:13:06.751Z,95645.95
2018-12-20T07:14:09.283Z,95646.72
2018-12-20T07:15:11.745Z,95641.36
2018-12-20T07:16:14.211Z,95643.16
2018-12-20T07:17:16.708Z,95638.34
2018-12-20T07:18:19.210Z,95638.53
2018-12-20T07:19:21.728Z,95640.60
2018-12-20T07:20:24.171Z,95635.02
2018-12-20T07:21:26.650Z,95640.25
2018-12-20T07:22:29.112Z,95638.05
2018-12-20T07:23:31.687Z,95639.56
2018-12-20T07:24:34.147Z,95640.06
2018-12-20T07:25:36.624Z,95646.50
2018-12-20T07:26:39.104Z,95649.69
2018-12-20T07:27:41.684Z,95640.05
2018-12-20T07:28:44.373Z,95640.05
2018-12-20T07:29:46.810Z,95647.70
2018-12-20T07:30:49.286Z,95653.11
2018-12-20T07:31:51.743Z,95647.56
2018-12-20T07:32:54.193Z,95649.95
2018-12-20T07:33:56.830Z,95644.11
2018-12-20T07:34:59.322Z,95649.55
2018-12-20T07:36:01.780Z,95652.02
2018-12-20T07:37:04.312Z,95652.22
2018-12-20T07:38:06.849Z,95649.47
2018-12-20T07:39:09.335Z,95651.53
2018-12-20T07:40:11.826Z,95654.50
2018-12-20T07:41:14.764Z,95657.30
2018-12-20T07:42:17.311Z,95647.34
2018-12-20T07:43:19.788Z,95652.08
2018-12-20T07:44:22.281Z,95650.77
2018-12-20T07:45:24.766Z,95650.91
2018-12-20T07:46:27.258Z,95650.77
2018-12-20T07:47:29.718Z,95650.09
2018-12-20T07:48:32.514Z,95650.64
2018-12-20T07:49:35.127Z,95647.81
2018-12-20T07:50:37.891Z,95654.91
2018-12-20T07:51:41.784Z,95650.58
2018-12-20T07:52:44.608Z,95649.06
2018-12-20T07:53:47.101Z,95649.41
2018-12-20T07:54:49.793Z,95647.97
2018-12-20T07:55:52.315Z,95652.08
2018-12-20T07:56:55.108Z,95657.30
2018-12-20T07:57:57.842Z,95657.22
2018-12-20T07:59:00.576Z,95649.39
2018-12-20T08:00:03.610Z,95655.64
2018-12-20T08:01:06.422Z,95655.23
2018-12-20T08:02:09.002Z,95653.17
2018-12-20T08:03:11.463Z,95652.62
2018-12-20T08:04:13.924Z,95655.51
2018-12-20T08:05:16.544Z,95655.19
2018-12-20T08:06:19.033Z,95659.91
2018-12-20T08:07:21.494Z,95656.54
2018-12-20T08:08:23.984Z,95656.81
2018-12-20T08:09:26.434Z,95657.63
2018-12-20T08:10:28.898Z,95657.44
2018-12-20T08:11:31.364Z,95653.17
2018-12-20T08:12:33.845Z,95655.10
2018-12-20T08:13:36.419Z,95658.80
2018-12-20T08:14:39.014Z,95658.80
2018-12-20T08:15:43.259Z,95662.31
2018-12-20T08:16:46.412Z,95665.25
2018-12-20T08:17:49.067Z,95659.34
2018-12-20T08:18:51.689Z,95666.23
2018-12-20T08:19:54.345Z,95664.92
2018-12-20T08:20:56.913Z,95671.09
2018-12-20T08:22:02.285Z,95660.38
2018-12-20T08:23:05.064Z,95667.86
2018-12-20T08:24:07.543Z,95668.08
2018-12-20T08:25:10.090Z,95677.81
2018-12-20T08:26:12.615Z,95674.52
2018-12-20T08:27:15.177Z,95678.71
2018-12-20T08:28:17.644Z,95678.17
2018-12-20T08:29:20.121Z,95681.95
2018-12-20T08:30:22.593Z,95683.30
2018-12-20T08:31:25.121Z,95677.45
2018-12-20T08:32:27.596Z,95679.58
2018-12-20T08:33:30.132Z,95683.66
2018-12-20T08:34:32.575Z,95683.03
2018-12-20T08:35:35.035Z,95684.52
2018-12-20T08:36:37.549Z,95682.94
2018-12-20T08:37:40.024Z,95678.74
2018-12-20T08:38:42.476Z,95682.98
2018-12-20T08:39:44.957Z,95679.50
2018-12-20T08:40:47.415Z,95681.93
2018-12-20T08:41:49.894Z,95680.67
2018-12-20T08:42:52.360Z,95674.40
2018-12-20T08:43:54.801Z,95676.83
2018-12-20T08:44:57.231Z,95679.48
2018-12-20T08:45:59.803Z,95677.16
2018-12-20T08:47:02.335Z,95683.55
2018-12-20T08:48:04.787Z,95679.27
2018-12-20T08:49:07.256Z,95686.45
2018-12-20T08:50:10.121Z,95684.67
2018-12-20T08:51:12.695Z,95686.02
2018-12-20T08:52:15.179Z,95693.01
2018-12-20T08:53:18.000Z,95688.04
2018-12-20T08:54:20.492Z,95691.05
2018-12-20T08:55:23.084Z,95692.48
2018-12-20T08:56:25.537Z,95692.13
2018-12-20T08:57:28.002Z,95700.95
2018-12-20T08:58:30.477Z,95696.00
2018-12-20T08:59:34.039Z,95695.45
2018-12-20T09:00:36.493Z,95699.52
2018-12-20T09:01:39.061Z,95703.73
2018-12-20T09:02:41.614Z,95699.16
2018-12-20T09:03:45.123Z,95701.27
2018-12-20T09:04:47.592Z,95703.09
2018-12-20T09:05:50.062Z,95706.83
2018-12-20T09:06:52.600Z,95708.44
2018-12-20T09:07:55.814Z,95708.84
2018-12-20T09:08:58.263Z,95711.59
2018-12-20T09:10:01.070Z,95705.16
2018-12-20T09:11:03.555Z,95708.39
2018-12-20T09:12:06.139Z,95711.67
2018-12-20T09:13:09.793Z,95709.48
2018-12-20T09:14:12.543Z,95713.50
2018-12-20T09:15:15.132Z,95724.41
2018-12-20T09:16:17.676Z,95708.80
2018-12-20T09:17:20.142Z,95717.47
2018-12-20T09:18:22.607Z,95720.66
2018-12-20T09:19:25.054Z,95717.28
2018-12-20T09:20:32.693Z,95720.30
2018-12-20T09:21:32.670Z,95718.54
2018-12-20T09:22:35.144Z,95720.66
2018-12-20T09:23:37.586Z,95718.85
2018-12-20T09:24:40.027Z,95718.78
2018-12-20T09:25:42.478Z,95722.56
2018-12-20T09:26:45.020Z,95718.64
2018-12-20T09:27:47.475Z,95719.14
2018-12-20T09:28:49.913Z,95715.50
2018-12-20T09:29:52.363Z,95721.39
2018-12-20T09:30:54.798Z,95713.00
2018-12-20T09:31:57.251Z,95717.47
2018-12-20T09:32:59.799Z,95718.14
2018-12-20T09:34:02.223Z,95723.08
2018-12-20T09:35:05.042Z,95711.67
2018-12-20T09:36:07.479Z,95712.41
2018-12-20T09:37:10.006Z,95714.88
2018-12-20T09:38:12.432Z,95719.38
2018-12-20T09:39:15.024Z,95718.94
2018-12-20T09:40:17.458Z,95712.98
2018-12-20T09:41:19.903Z,95718.06
2018-12-20T09:42:22.346Z,95726.86
2018-12-20T09:43:25.018Z,95714.73
2018-12-20T09:44:27.638Z,95716.84
2018-12-20T09:45:30.067Z,95721.03
2018-12-20T09:46:32.507Z,95716.77
2018-12-20T09:47:40.551Z,95726.11
2018-12-20T09:48:43.015Z,95723.38
2018-12-20T09:49:45.465Z,95720.32
2018-12-20T09:50:47.905Z,95721.92
2018-12-20T09:51:50.337Z,95724.84
2018-12-20T09:52:52.788Z,95722.84
2018-12-20T09:53:55.223Z,95727.83
2018-12-20T09:54:57.656Z,95731.25
2018-12-20T09:56:00.090Z,95717.91
2018-12-20T09:57:02.540Z,95722.02
2018-12-20T09:58:05.005Z,95731.06
2018-12-20T09:59:07.445Z,95713.19
2018-12-20T10:00:10.170Z,95720.20
2018-12-20T10:01:12.605Z,95721.91
2018-12-20T10:02:15.068Z,95711.32
2018-12-20T10:03:17.510Z,95718.33
2018-12-20T10:04:19.949Z,95717.60
2018-12-20T10:05:22.405Z,95722.84
2018-12-20T10:06:24.839Z,95714.55
2018-12-20T10:07:27.304Z,95710.02
2018-12-20T10:08:29.871Z,95717.77
2018-12-20T10:09:32.480Z,95723.97
2018-12-20T10:10:34.936Z,95708.41
2018-12-20T10:11:37.395Z,95718.92
2018-12-20T10:12:39.856Z,95719.69
2018-12-20T10:13:42.305Z,95715.40
2018-12-20T10:14:44.769Z,95724.81
2018-12-20T10:15:47.555Z,95719.21
2018-12-20T10:16:50.028Z,95721.09
2018-12-20T10:17:52.488Z,95713.09
2018-12-20T10:18:54.930Z,95713.74
2018-12-20T10:19:57.363Z,95719.13
2018-12-20T10:20:59.804Z,95714.84
2018-12-20T10:22:02.251Z,95708.29
2018-12-20T10:23:04.822Z,95719.16
2018-12-20T10:24:07.615Z,95717.02
2018-12-20T10:25:10.388Z,95712.37
2018-12-20T10:26:12.823Z,95715.53
2018-12-20T10:27:15.263Z,95720.59
2018-12-20T10:28:17.730Z,95716.45
2018-12-20T10:29:20.178Z,95723.20
2018-12-20T10:30:22.632Z,95716.77
2018-12-20T10:31:25.078Z,95715.23
2018-12-20T10:32:27.524Z,95709.48
2018-12-20T10:33:29.977Z,95714.39
2018-12-20T10:34:32.435Z,95711.04
2018-12-20T10:35:34.869Z,95714.61
2018-12-20T10:36:37.314Z,95707.23
2018-12-20T10:37:39.750Z,95706.47
2018-12-20T10:38:42.211Z,95712.77
2018-12-20T10:39:44.708Z,95711.92
2018-12-20T10:40:47.226Z,95714.05
2018-12-20T10:41:49.664Z,95708.30
2018-12-20T10:42:52.095Z,95706.27
2018-12-20T10:43:54.559Z,95721.34
2018-12-20T10:44:57.000Z,95706.17
2018-12-20T10:45:59.453Z,95721.98
2018-12-20T10:47:07.577Z,95709.47
2018-12-20T10:48:10.015Z,95713.15
2018-12-20T10:49:12.473Z,95716.74
2018-12-20T10:50:14.931Z,95708.06
2018-12-20T10:51:17.382Z,95714.12
2018-12-20T10:52:19.903Z,95712.91
2018-12-20T10:53:22.540Z,95715.22
2018-12-20T10:54:24.994Z,95712.96
2018-12-20T10:55:27.450Z,95712.50
2018-12-20T10:56:29.912Z,95697.59
2018-12-20T10:57:32.346Z,95706.12
2018-12-20T10:58:34.796Z,95706.06
2018-12-20T10:59:37.230Z,95702.15
2018-12-20T11:00:45.188Z,95705.81
2018-12-20T11:01:49.688Z,95699.63
2018-12-20T11:02:57.808Z,95703.02
2018-12-20T11:04:05.833Z,95686.38
2018-12-20T11:05:25.949Z,95686.85
2018-12-20T11:06:34.070Z,95674.09
2018-12-20T11:07:42.212Z,95688.58
2018-12-20T11:08:46.724Z,95674.39
2018-12-20T11:09:54.855Z,95672.92
2018-12-20T11:11:04.949Z,95683.35
2018-12-20T11:12:08.624Z,95678.16
2018-12-20T11:13:25.793Z,95680.80
2018-12-20T11:14:28.226Z,95677.66
2018-12-20T11:15:30.678Z,95679.73
2018-12-20T11:16:33.120Z,95682.34
2018-12-20T11:17:37.539Z,95679.36
2018-12-20T11:18:40.004Z,95672.11
2018-12-20T11:19:42.454Z,95672.34
2018-12-20T11:20:44.923Z,95674.41
2018-12-20T11:21:47.347Z,95671.25
2018-12-20T11:22:49.880Z,95669.34
2018-12-20T11:23:52.325Z,95672.32
2018-12-20T11:24:54.767Z,95670.41
2018-12-20T11:25:57.224Z,95670.25
2018-12-20T11:26:59.668Z,95674.59
2018-12-20T11:28:02.103Z,95679.98
2018-12-20T11:29:04.551Z,95669.63
2018-12-20T11:30:08.304Z,95674.02
2018-12-20T11:31:11.063Z,95674.59
2018-12-20T11:32:13.644Z,95678.36
2018-12-20T11:33:16.084Z,95666.64
2018-12-20T11:34:18.546Z,95664.77
2018-12-20T11:35:20.998Z,95670.46
2018-12-20T11:36:23.451Z,95668.05
2018-12-20T11:37:25.925Z,95678.03
2018-12-20T11:38:28.458Z,95677.40
2018-12-20T11:39:30.889Z,95666.75
2018-12-20T11:40:33.326Z,95670.16
2018-12-20T11:41:35.767Z,95671.72
2018-12-20T11:42:38.220Z,95668.17
2018-12-20T11:43:40.717Z,95660.81
2018-12-20T11:44:43.153Z,95671.86
2018-12-20T11:45:45.586Z,95677.91
2018-12-20T11:46:49.075Z,95673.80
2018-12-20T11:47:51.708Z,95674.16
2018-12-20T11:48:54.135Z,95673.95
2018-12-20T11:49:56.571Z,95665.02
2018-12-20T11:50:59.041Z,95673.50
2018-12-20T11:52:01.579Z,95672.63
2018-12-20T11:53:04.026Z,95671.09
2018-12-20T11:54:06.469Z,95666.07
2018-12-20T11:55:08.991Z,95665.06
2018-12-20T11:56:11.469Z,95673.62
2018-12-20T11:57:13.945Z,95680.51
2018-12-20T11:58:16.392Z,95680.23
2018-12-20T11:59:18.831Z,95665.81
2018-12-20T12:00:21.316Z,95662.68
2018-12-20T12:01:23.760Z,95672.25
2018-12-20T12:02:26.209Z,95659.30
2018-12-20T12:03:28.660Z,95664.94
2018-12-20T12:04:31.100Z,95662.57
2018-12-20T12:05:33.532Z,95656.73
2018-12-20T12:06:35.974Z,95664.82
2018-12-20T12:07:38.439Z,95653.56
2018-12-20T12:08:40.890Z,95670.41
2018-12-20T12:09:43.384Z,95661.16
2018-12-20T12:10:45.865Z,95666.63
2018-12-20T12:11:48.325Z,95670.06
2018-12-20T12:12:50.767Z,95661.65
2018-12-20T12:13:53.228Z,95653.42
2018-12-20T12:14:55.758Z,95662.96
2018-12-20T12:15:58.298Z,95664.11
2018-12-20T12:17:00.752Z,95674.11
2018-12-20T12:18:03.211Z,95662.96